Beaver Island, MI (49782)

11:47 AM EDT on August 27, 2016 (GMT -0400)
Greene's Bay | | Change Station

Elev 583 ft 45.63 °N, 85.61 °W | Updated 6 minutes ago

Overcast
Overcast
66.1 °F
Feels Like 66.1 °F
N
0.0
Wind Variable Wind from WSW
Gusts 0.0 mph

Today
High -- | Low -- °F
--% Chance of Precip.
Yesterday
High -- | Low -- °F
Precip. -- in
Pressure 30.17 in
Visibility 10.0 miles
Clouds Overcast 7000 ft
Dew Point 66 °F
Humidity 98%
Rainfall 0.07 in
Snow Depth Not available.
6:57 AM 8:28 PM
Waning Crescent, 23% visible
METAR KSJX 271535Z AUTO 11003KT 10SM OVC070 19/18 A3017 RMK AO2 T01890176
Pressure 30.17 in
Visibility 10.0 miles
Clouds Overcast 7000 ft
Dew Point 66 °F
Humidity 98%
Rainfall 0.07 in
Snow Depth Not available.
6:57 AM 8:28 PM
Waning Crescent, 23% visible
METAR KSJX 271535Z AUTO 11003KT 10SM OVC070 19/18 A3017 RMK AO2 T01890176

10-Day Weather Forecast

Almanac

Astronomy

Aug. 27, 2016 Rise Set
Actual Time
Civil Twilight
Nautical Twilight
Astronomical Twilight
Moon
Length of Visible Light
Length of Day
Tomorrow will be .
, % of the Moon is Illuminated

Today's Extremes

State Highs State Lows

Community

WunderPhotos

Upload Photos

1,935,358 photos uploaded!

WunderBlog® & News

Nearby

Air Quality

  Air Quality AQ Index Pollutant
Not available.

Snow Depth

Station Depth Elevation

Earthquake Activity

City Distance Mag. Time & Date
Minimum magnitude displayed is 2.5.

Coastal Water Temperatures

Place Temperature

Stations

Nearby Weather Stations

Station Location Temp. Windchill Dew Point Humidity Wind Precip. Elev Updated Type
                   

Watches & Warnings

There are currently no watches in effect.